This is the latest recevied weather packets stored in our database for station/object KC8P. If no packets are shown the sender has not sent any weather packets the latest 1 day(s).
| Time | Temp. | Humidity | Pressure | Rain* | Wind** | Luminosity | Snow |
|---|---|---|---|---|---|---|---|
| 1778078375 | 7.78° C | 61% | 1012.1 hPa | 0 mm | - | 697 W/m² | - |
| 1778078323 | 8.89° C | 60% | 1011.8 hPa | 0 mm | - | 600 W/m² | - |
| 1778078244 | 9.44° C | 58% | 1012.1 hPa | 0 mm | - | 607 W/m² | - |
| 1778077916 | 8.89° C | 59% | 1012.1 hPa | 0 mm | - | 577 W/m² | - |
| 1778077587 | 7.78° C | 62% | 1012.1 hPa | 0 mm | - | 694 W/m² | - |
| 1778077456 | 8.33° C | 61% | 1012.1 hPa | 0 mm | - | 531 W/m² | - |
| 1778077194 | 9.44° C | 60% | 1011.8 hPa | 0 mm | - | 401 W/m² | - |
| 1778077128 | 9.44° C | 58% | 1011.8 hPa | 0 mm | - | 394 W/m² | - |
| 1778077062 | 9.44° C | 60% | 1012.1 hPa | 0 mm | - | 458 W/m² | - |
| 1778076929 | 9.44° C | 57% | 1011.8 hPa | 0 mm | - | 484 W/m² | - |
| 1778076864 | 9.44° C | 57% | 1012.1 hPa | 0 mm | - | 449 W/m² | - |
| 1778076798 | 9.44° C | 59% | 1011.8 hPa | 0 mm | - | 566 W/m² | - |
| 1778076733 | 9.44° C | 59% | 1012.1 hPa | 0 mm | - | 463 W/m² | - |
| 1778076601 | 9.44° C | 58% | 1012.4 hPa | 0 mm | - | 552 W/m² | - |
| 1778076535 | 8.89° C | 60% | 1012.1 hPa | 0 mm | - | 489 W/m² | - |
| 1778076470 | 8.89° C | 58% | 1012.1 hPa | 0 mm | - | 535 W/m² | - |
| 1778076404 | 8.89° C | 59% | 1011.8 hPa | 0 mm | - | 573 W/m² | - |
| 1778076339 | 9.44° C | 58% | 1011.8 hPa | 0 mm | - | 566 W/m² | - |
| 1778076272 | 9.44° C | 58% | 1011.8 hPa | 0 mm | - | 486 W/m² | - |
| 1778076010 | 8.89° C | 60% | 1012.1 hPa | 0 mm | - | 580 W/m² | - |
| 1778075944 | 8.89° C | 59% | 1011.8 hPa | 0 mm | - | 570 W/m² | - |
| 1778075543 | 8.33° C | 60% | 1011.8 hPa | 0 mm | - | 517 W/m² | - |
| 1778075396 | 7.78° C | 60% | 1011.8 hPa | 0 mm | - | 533 W/m² | - |
| 1778075244 | 7.22° C | 62% | 1011.8 hPa | 0 mm | - | 501 W/m² | - |
| 1778074981 | 7.22° C | 63% | 1011.8 hPa | 0 mm | - | 525 W/m² | - |
* Rain latest hour (hover to see other rain measurements)
** Current wind speed in m/s (hover to see current wind gust speed)